Time;durP1;ratioP1;P1;durP2;ratioP2;P2;SDS_P1;SDS_P2;PMS_P1;PMS_P2;Temp;Humidity;BMP_temperature;BMP_pressure;BME280_temperature;BME280_humidity;BME280_pressure;Samples;Min_cycle;Max_cycle;Signal;HPM_P1;HPM_P2
2022/02/27 00:01:28;;;;;;;5.25;4.05;;;;;;;;;;5033645;28;20217;-82
2022/02/27 00:03:54;;;;;;;5.20;3.38;;;;;;;;;;5052719;28;20182;-82
2022/02/27 00:06:20;;;;;;;4.22;2.95;;;;;;;;;;5035217;28;20183;-82
2022/02/27 00:08:46;;;;;;;5.15;3.15;;;;;;;;;;5033811;28;20217;-81
2022/02/27 00:11:12;;;;;;;4.93;3.25;;;;;;;;;;5038156;28;20212;-82
2022/02/27 00:13:38;;;;;;;5.20;2.90;;;;;;;;;;5024593;28;20202;-83
2022/02/27 00:16:04;;;;;;;5.93;3.47;;;;;;;;;;5035718;28;20211;-83
2022/02/27 00:18:30;;;;;;;5.57;2.97;;;;;;;;;;5023698;28;20186;-82
2022/02/27 00:20:56;;;;;;;5.30;3.05;;;;;;;;;;5028396;28;20179;-82
2022/02/27 00:23:22;;;;;;;5.57;3.53;;;;;;;;;;5036035;28;20245;-81
2022/02/27 00:25:48;;;;;;;4.57;3.47;;;;;;;;;;5031652;28;20192;-82
2022/02/27 00:28:14;;;;;;;4.10;2.45;;;;;;;;;;5026227;28;20265;-82
2022/02/27 00:30:41;;;;;;;3.95;3.03;;;;;;;;;;5025331;28;20186;-81
2022/02/27 00:33:07;;;;;;;3.95;2.65;;;;;;;;;;5028432;28;20182;-81
2022/02/27 00:35:33;;;;;;;4.40;3.15;;;;;;;;;;5025428;28;20253;-82
2022/02/27 00:38:00;;;;;;;4.53;3.45;;;;;;;;;;5033056;28;20405;-81
2022/02/27 00:40:26;;;;;;;5.38;3.70;;;;;;;;;;5032330;28;20289;-82
2022/02/27 00:42:52;;;;;;;7.45;3.65;;;;;;;;;;5040994;28;20178;-81
2022/02/27 00:45:18;;;;;;;5.37;3.07;;;;;;;;;;5042857;28;20174;-85
2022/02/27 00:47:44;;;;;;;5.70;3.53;;;;;;;;;;5010224;28;20825;-81
2022/02/27 00:50:10;;;;;;;5.00;3.80;;;;;;;;;;5033659;28;20198;-84
2022/02/27 00:52:36;;;;;;;6.88;3.22;;;;;;;;;;5014286;28;20248;-81
2022/02/27 00:55:02;;;;;;;7.78;3.22;;;;;;;;;;5037229;28;20194;-80
2022/02/27 00:57:29;;;;;;;4.60;4.05;;;;;;;;;;5024573;28;20595;-81
2022/02/27 00:59:56;;;;;;;3.78;3.30;;;;;;;;;;5025509;28;20166;-82
2022/02/27 01:02:22;;;;;;;7.55;3.55;;;;;;;;;;5016411;28;20175;-82
2022/02/27 01:04:48;;;;;;;7.80;3.33;;;;;;;;;;5029370;28;20183;-83
2022/02/27 01:07:14;;;;;;;5.38;3.60;;;;;;;;;;5028541;28;20179;-81
2022/02/27 01:09:41;;;;;;;3.10;2.65;;;;;;;;;;5024430;28;20183;-81
2022/02/27 01:12:07;;;;;;;8.25;4.15;;;;;;;;;;5015525;28;20183;-82
2022/02/27 01:14:33;;;;;;;5.88;3.33;;;;;;;;;;5023534;28;20194;-82
2022/02/27 01:17:02;;;;;;;5.03;3.63;;;;;;;;;;5036755;28;20242;-82
2022/02/27 01:19:29;;;;;;;10.95;4.10;;;;;;;;;;5023183;28;20186;-82
2022/02/27 01:21:55;;;;;;;6.80;4.00;;;;;;;;;;5030814;28;20174;-81
2022/02/27 01:24:21;;;;;;;3.72;3.30;;;;;;;;;;5024561;28;20191;-80
2022/02/27 01:26:47;;;;;;;4.80;2.97;;;;;;;;;;5017593;28;20217;-82
2022/02/27 01:29:13;;;;;;;5.53;3.70;;;;;;;;;;5012475;28;20195;-82
2022/02/27 01:31:39;;;;;;;4.10;3.60;;;;;;;;;;5031493;28;20182;-82
2022/02/27 01:34:05;;;;;;;3.47;2.85;;;;;;;;;;5040474;28;20209;-82
2022/02/27 01:36:31;;;;;;;7.68;4.50;;;;;;;;;;5023337;28;20203;-82
2022/02/27 01:38:57;;;;;;;5.40;3.40;;;;;;;;;;5027677;28;20175;-81
2022/02/27 01:41:23;;;;;;;4.53;3.60;;;;;;;;;;5029967;28;20652;-82
2022/02/27 01:43:49;;;;;;;15.45;4.00;;;;;;;;;;5027947;28;20186;-82
2022/02/27 01:46:15;;;;;;;4.70;3.22;;;;;;;;;;5044033;28;20182;-83
2022/02/27 01:48:42;;;;;;;7.45;4.13;;;;;;;;;;5008738;28;20193;-84
2022/02/27 01:51:08;;;;;;;8.07;3.35;;;;;;;;;;5042318;28;20187;-81
2022/02/27 01:53:34;;;;;;;5.97;3.00;;;;;;;;;;5009384;28;20189;-82
2022/02/27 01:56:00;;;;;;;5.07;3.38;;;;;;;;;;5023440;28;20210;-80
2022/02/27 01:58:27;;;;;;;6.88;3.20;;;;;;;;;;5027857;28;20190;-81
2022/02/27 02:00:53;;;;;;;6.25;3.25;;;;;;;;;;5037228;28;20183;-85
2022/02/27 02:03:19;;;;;;;6.88;3.10;;;;;;;;;;5024042;28;20179;-82
2022/02/27 02:05:45;;;;;;;7.53;3.20;;;;;;;;;;5025062;28;20182;-83
2022/02/27 02:08:11;;;;;;;8.63;2.90;;;;;;;;;;5022420;28;20562;-81
2022/02/27 02:10:37;;;;;;;12.90;4.35;;;;;;;;;;5030973;28;20194;-81
2022/02/27 02:13:03;;;;;;;7.18;3.35;;;;;;;;;;5028601;28;20285;-82
2022/02/27 02:15:29;;;;;;;4.90;3.25;;;;;;;;;;5053593;28;20557;-85
2022/02/27 02:17:55;;;;;;;5.93;3.22;;;;;;;;;;5026644;28;20633;-81
2022/02/27 02:20:21;;;;;;;7.10;3.50;;;;;;;;;;5013031;28;20263;-84
2022/02/27 02:22:47;;;;;;;4.45;2.90;;;;;;;;;;5027766;28;20180;-81
2022/02/27 02:25:13;;;;;;;5.93;3.35;;;;;;;;;;5012361;28;20233;-84
2022/02/27 02:27:39;;;;;;;6.93;3.50;;;;;;;;;;5022546;28;20202;-81
2022/02/27 02:30:09;;;;;;;7.55;3.60;;;;;;;;;;5010034;28;20232;-81
2022/02/27 02:32:45;;;;;;;7.43;4.05;;;;;;;;;;5011677;28;20183;-81
2022/02/27 02:35:10;;;;;;;6.93;3.15;;;;;;;;;;5033737;28;20189;-83
2022/02/27 02:37:37;;;;;;;5.53;3.30;;;;;;;;;;5030200;28;20207;-81
2022/02/27 02:40:04;;;;;;;11.77;3.60;;;;;;;;;;5009595;28;20297;-81
2022/02/27 02:42:30;;;;;;;5.25;2.80;;;;;;;;;;5022574;28;20178;-80
2022/02/27 02:44:56;;;;;;;5.50;3.42;;;;;;;;;;5026272;28;20229;-81
2022/02/27 02:47:22;;;;;;;7.97;3.78;;;;;;;;;;5026061;28;20214;-81
2022/02/27 02:49:48;;;;;;;7.53;3.63;;;;;;;;;;5007883;28;20190;-81
2022/02/27 02:52:18;;;;;;;5.38;3.03;;;;;;;;;;5027483;28;20470;-81
2022/02/27 02:54:44;;;;;;;6.40;3.03;;;;;;;;;;5022283;28;20205;-81
2022/02/27 02:57:10;;;;;;;9.85;3.95;;;;;;;;;;5019704;28;20206;-81
2022/02/27 02:59:36;;;;;;;6.72;2.70;;;;;;;;;;5011941;28;20282;-81
2022/02/27 03:02:02;;;;;;;7.32;3.50;;;;;;;;;;5012004;28;20183;-81
2022/02/27 03:04:29;;;;;;;8.02;3.47;;;;;;;;;;5033700;28;20186;-81
2022/02/27 03:06:55;;;;;;;7.75;3.15;;;;;;;;;;5008757;28;20242;-81
2022/02/27 03:09:21;;;;;;;4.82;4.30;;;;;;;;;;5026387;28;20218;-80
2022/02/27 03:11:47;;;;;;;5.60;3.20;;;;;;;;;;5019033;28;20269;-81
2022/02/27 03:14:13;;;;;;;6.20;3.50;;;;;;;;;;5030618;28;20183;-81
2022/02/27 03:16:39;;;;;;;8.55;2.92;;;;;;;;;;5024955;28;20290;-81
2022/02/27 03:19:05;;;;;;;6.78;3.33;;;;;;;;;;5025312;28;20576;-81
2022/02/27 03:21:31;;;;;;;5.35;3.35;;;;;;;;;;5007685;28;20183;-81
2022/02/27 03:23:57;;;;;;;6.57;2.63;;;;;;;;;;5005515;28;20474;-81
2022/02/27 03:26:23;;;;;;;4.43;2.72;;;;;;;;;;5026663;28;20274;-81
2022/02/27 03:28:50;;;;;;;5.50;2.70;;;;;;;;;;5011146;28;20210;-81
2022/02/27 03:31:16;;;;;;;5.07;2.83;;;;;;;;;;5007434;28;20187;-81
2022/02/27 03:33:42;;;;;;;8.07;3.50;;;;;;;;;;5056962;28;20190;-81
2022/02/27 03:36:08;;;;;;;4.85;3.22;;;;;;;;;;5008796;28;20203;-81
2022/02/27 03:38:34;;;;;;;8.88;3.10;;;;;;;;;;5021879;28;20299;-81
2022/02/27 03:41:00;;;;;;;5.88;3.42;;;;;;;;;;5009460;28;20222;-82
2022/02/27 03:43:26;;;;;;;6.68;2.60;;;;;;;;;;5030161;28;20191;-81
2022/02/27 03:45:52;;;;;;;8.57;3.08;;;;;;;;;;5040480;28;20248;-80
2022/02/27 03:48:18;;;;;;;4.82;2.75;;;;;;;;;;5039454;28;20182;-81
2022/02/27 03:50:44;;;;;;;11.35;2.92;;;;;;;;;;5018491;28;20222;-81
2022/02/27 03:53:10;;;;;;;6.30;2.75;;;;;;;;;;5028861;28;20186;-81
2022/02/27 03:55:36;;;;;;;5.78;2.97;;;;;;;;;;5024878;28;20315;-82
2022/02/27 03:58:03;;;;;;;8.18;3.38;;;;;;;;;;5039712;28;20285;-82
2022/02/27 04:00:29;;;;;;;5.10;2.90;;;;;;;;;;5010826;28;20230;-82
2022/02/27 04:02:55;;;;;;;7.13;3.15;;;;;;;;;;5041513;28;20179;-82
2022/02/27 04:05:21;;;;;;;5.03;2.53;;;;;;;;;;5030495;28;20230;-81
2022/02/27 04:07:47;;;;;;;11.07;2.80;;;;;;;;;;5029851;28;20559;-81
2022/02/27 04:10:13;;;;;;;4.85;2.85;;;;;;;;;;5025780;28;20198;-81
2022/02/27 04:12:39;;;;;;;6.47;2.90;;;;;;;;;;5042002;28;20221;-81
2022/02/27 04:15:06;;;;;;;9.23;2.65;;;;;;;;;;5027536;28;20205;-80
2022/02/27 04:17:32;;;;;;;7.47;3.28;;;;;;;;;;5029060;28;20215;-81
2022/02/27 04:19:58;;;;;;;5.75;2.83;;;;;;;;;;5029745;28;20190;-81
2022/02/27 04:22:25;;;;;;;2.90;2.65;;;;;;;;;;5030232;28;20179;-82
2022/02/27 04:24:51;;;;;;;7.45;2.72;;;;;;;;;;5025617;28;20209;-81
2022/02/27 04:27:17;;;;;;;6.70;2.65;;;;;;;;;;5007441;28;20183;-81
2022/02/27 04:29:45;;;;;;;3.38;2.38;;;;;;;;;;5010816;28;20183;-81
2022/02/27 04:32:11;;;;;;;5.72;3.05;;;;;;;;;;5016902;28;20179;-82
2022/02/27 04:34:37;;;;;;;10.15;3.50;;;;;;;;;;5015247;28;20246;-83
2022/02/27 04:37:03;;;;;;;4.65;2.65;;;;;;;;;;5027328;28;20626;-82
2022/02/27 04:39:29;;;;;;;7.25;3.17;;;;;;;;;;5024896;28;20219;-81
2022/02/27 04:41:56;;;;;;;5.32;3.20;;;;;;;;;;5025005;28;20242;-82
2022/02/27 04:44:22;;;;;;;4.78;2.72;;;;;;;;;;5025375;28;20186;-81
2022/02/27 04:46:48;;;;;;;4.68;2.92;;;;;;;;;;5036048;28;20198;-81
2022/02/27 04:49:14;;;;;;;5.10;2.97;;;;;;;;;;5024643;28;20199;-81
2022/02/27 04:51:40;;;;;;;3.90;3.28;;;;;;;;;;5009239;28;20246;-81
2022/02/27 04:54:06;;;;;;;4.82;2.78;;;;;;;;;;5026764;28;20183;-82
2022/02/27 04:56:32;;;;;;;3.90;2.65;;;;;;;;;;5028527;28;20218;-81
2022/02/27 04:58:58;;;;;;;7.88;2.75;;;;;;;;;;5025078;28;20237;-82
2022/02/27 05:01:24;;;;;;;3.40;2.57;;;;;;;;;;5015720;28;20434;-80
2022/02/27 05:03:50;;;;;;;8.07;2.85;;;;;;;;;;5010732;28;20429;-81
2022/02/27 05:06:16;;;;;;;7.40;4.20;;;;;;;;;;5009487;28;20191;-81
2022/02/27 05:08:42;;;;;;;5.20;3.08;;;;;;;;;;5024306;28;20191;-81
2022/02/27 05:11:08;;;;;;;3.53;2.65;;;;;;;;;;5029045;28;20183;-81
2022/02/27 05:13:34;;;;;;;3.95;2.78;;;;;;;;;;5029321;28;20190;-81
2022/02/27 05:16:00;;;;;;;8.70;3.13;;;;;;;;;;5010777;28;20329;-82
2022/02/27 05:18:26;;;;;;;5.00;2.95;;;;;;;;;;5024305;28;20648;-81
2022/02/27 05:20:53;;;;;;;2.72;2.50;;;;;;;;;;5044451;28;20580;-81
2022/02/27 05:23:19;;;;;;;7.93;3.75;;;;;;;;;;5028884;28;20190;-82
2022/02/27 05:25:45;;;;;;;4.15;2.45;;;;;;;;;;5014309;28;20185;-81
2022/02/27 05:28:11;;;;;;;4.35;2.30;;;;;;;;;;5036269;28;20215;-81
2022/02/27 05:30:37;;;;;;;4.65;2.42;;;;;;;;;;5041302;28;20193;-81
2022/02/27 05:33:03;;;;;;;3.25;2.40;;;;;;;;;;5039123;28;20567;-81
2022/02/27 05:35:29;;;;;;;5.60;3.50;;;;;;;;;;5013716;28;20214;-81
2022/02/27 05:37:55;;;;;;;9.48;2.40;;;;;;;;;;5024344;28;20234;-82
2022/02/27 05:40:21;;;;;;;5.65;2.80;;;;;;;;;;5013503;28;20218;-81
2022/02/27 05:42:47;;;;;;;4.13;2.63;;;;;;;;;;5010281;28;20238;-81
2022/02/27 05:45:13;;;;;;;10.80;2.70;;;;;;;;;;5025105;28;20176;-81
2022/02/27 05:47:39;;;;;;;7.85;2.97;;;;;;;;;;5008807;28;20187;-81
2022/02/27 05:50:05;;;;;;;8.63;3.10;;;;;;;;;;5027713;28;20198;-82
2022/02/27 05:52:31;;;;;;;8.57;3.03;;;;;;;;;;5028434;28;20216;-82
2022/02/27 05:54:57;;;;;;;14.68;3.17;;;;;;;;;;5010695;28;20183;-81
2022/02/27 05:57:23;;;;;;;4.60;2.65;;;;;;;;;;5023520;28;20226;-82
2022/02/27 05:59:49;;;;;;;6.38;2.30;;;;;;;;;;5023687;28;20178;-82
2022/02/27 06:02:15;;;;;;;6.47;3.30;;;;;;;;;;5012269;28;20217;-81
2022/02/27 06:04:41;;;;;;;5.07;2.92;;;;;;;;;;5020847;28;20186;-81
2022/02/27 06:07:07;;;;;;;2.92;2.60;;;;;;;;;;5045360;28;20174;-81
2022/02/27 06:09:33;;;;;;;5.00;3.03;;;;;;;;;;5022700;28;20194;-81
2022/02/27 06:11:59;;;;;;;5.60;2.85;;;;;;;;;;5021678;28;20670;-81
2022/02/27 06:14:25;;;;;;;4.47;2.65;;;;;;;;;;5026337;28;20198;-81
2022/02/27 06:16:51;;;;;;;7.20;3.00;;;;;;;;;;5022362;28;20270;-81
2022/02/27 06:19:17;;;;;;;6.63;2.90;;;;;;;;;;5023333;28;20438;-81
2022/02/27 06:21:43;;;;;;;3.08;2.47;;;;;;;;;;5021412;28;20174;-80
2022/02/27 06:24:09;;;;;;;2.50;2.30;;;;;;;;;;5022552;28;20253;-81
2022/02/27 06:26:35;;;;;;;5.32;2.50;;;;;;;;;;5030060;28;20194;-82
2022/02/27 06:29:02;;;;;;;8.48;3.47;;;;;;;;;;5020395;28;20187;-83
2022/02/27 06:31:28;;;;;;;4.90;2.60;;;;;;;;;;5023361;28;20179;-81
2022/02/27 06:33:54;;;;;;;7.18;2.60;;;;;;;;;;5024060;28;20185;-82
2022/02/27 06:36:20;;;;;;;3.70;2.33;;;;;;;;;;5023738;28;20191;-81
2022/02/27 06:38:46;;;;;;;5.93;2.70;;;;;;;;;;5042499;28;20179;-82
2022/02/27 06:41:14;;;;;;;8.55;2.75;;;;;;;;;;5038527;28;20714;-82
2022/02/27 06:43:40;;;;;;;4.63;2.45;;;;;;;;;;5035273;28;20179;-81
2022/02/27 06:46:07;;;;;;;7.53;2.50;;;;;;;;;;5010452;28;20187;-81
2022/02/27 06:48:33;;;;;;;9.05;2.30;;;;;;;;;;5023463;28;20178;-82
2022/02/27 06:50:59;;;;;;;7.40;2.72;;;;;;;;;;5038392;28;20198;-81
2022/02/27 06:53:25;;;;;;;6.95;3.20;;;;;;;;;;5024956;28;20191;-82
2022/02/27 06:55:51;;;;;;;3.75;2.20;;;;;;;;;;5033374;28;20191;-81
2022/02/27 06:58:17;;;;;;;6.72;2.85;;;;;;;;;;5030231;28;20182;-81
2022/02/27 07:00:44;;;;;;;5.65;2.08;;;;;;;;;;5015571;28;20178;-81
2022/02/27 07:03:10;;;;;;;6.82;2.70;;;;;;;;;;5019455;28;20191;-82
2022/02/27 07:05:36;;;;;;;7.50;2.83;;;;;;;;;;5031759;28;20196;-81
2022/02/27 07:08:02;;;;;;;8.70;2.50;;;;;;;;;;5021651;28;20187;-81
2022/02/27 07:10:28;;;;;;;3.47;2.05;;;;;;;;;;5011279;28;20441;-82
2022/02/27 07:12:54;;;;;;;6.50;2.13;;;;;;;;;;5037458;28;20185;-81
2022/02/27 07:15:20;;;;;;;7.97;2.47;;;;;;;;;;5035472;28;20179;-80
2022/02/27 07:17:46;;;;;;;5.80;2.08;;;;;;;;;;5049570;28;20245;-82
2022/02/27 07:20:12;;;;;;;4.13;1.98;;;;;;;;;;5025012;28;20330;-82
2022/02/27 07:22:38;;;;;;;8.95;2.83;;;;;;;;;;5030939;28;20665;-82
2022/02/27 07:25:08;;;;;;;4.60;2.30;;;;;;;;;;5046995;28;20269;-82
2022/02/27 07:27:35;;;;;;;4.30;1.83;;;;;;;;;;5006578;28;20205;-83
2022/02/27 07:30:01;;;;;;;7.55;2.80;;;;;;;;;;5040729;28;20702;-81
2022/02/27 07:32:27;;;;;;;4.15;2.40;;;;;;;;;;5027887;28;20178;-82
2022/02/27 07:34:53;;;;;;;4.88;3.13;;;;;;;;;;5029722;28;20611;-85
2022/02/27 07:37:19;;;;;;;10.10;2.70;;;;;;;;;;5019162;28;20225;-85
2022/02/27 07:39:48;;;;;;;5.82;2.33;;;;;;;;;;5042192;28;20214;-85
2022/02/27 07:42:15;;;;;;;6.00;2.40;;;;;;;;;;5026788;28;20229;-87
2022/02/27 07:44:41;;;;;;;9.93;2.60;;;;;;;;;;5008101;28;20199;-89
2022/02/27 07:47:07;;;;;;;3.95;2.40;;;;;;;;;;5034893;28;20186;-84
2022/02/27 07:49:33;;;;;;;3.05;2.45;;;;;;;;;;5027870;28;20198;-88
2022/02/27 07:51:59;;;;;;;5.82;2.75;;;;;;;;;;5020756;28;20186;-86
2022/02/27 07:54:25;;;;;;;6.05;2.75;;;;;;;;;;5015783;28;20246;-86
2022/02/27 07:56:51;;;;;;;4.07;2.47;;;;;;;;;;5023565;28;20226;-88
2022/02/27 07:59:17;;;;;;;3.78;2.90;;;;;;;;;;5021870;28;20285;-85
2022/02/27 08:01:43;;;;;;;9.48;3.70;;;;;;;;;;5023048;28;20190;-82
2022/02/27 08:04:10;;;;;;;4.97;2.67;;;;;;;;;;5036881;28;20179;-86
2022/02/27 08:06:36;;;;;;;3.67;2.38;;;;;;;;;;5050875;28;20257;-86
2022/02/27 08:09:03;;;;;;;4.22;2.03;;;;;;;;;;5034860;28;20212;-86
2022/02/27 08:11:30;;;;;;;3.45;2.40;;;;;;;;;;5032983;28;20193;-85
2022/02/27 08:13:56;;;;;;;4.35;2.65;;;;;;;;;;5018750;28;20273;-84
2022/02/27 08:16:22;;;;;;;8.95;3.03;;;;;;;;;;5032061;28;20253;-85
2022/02/27 08:18:48;;;;;;;5.13;2.45;;;;;;;;;;5046207;28;20179;-83
2022/02/27 08:21:17;;;;;;;3.65;2.50;;;;;;;;;;5035256;28;20170;-85
2022/02/27 08:23:43;;;;;;;5.90;2.30;;;;;;;;;;5031806;28;20179;-86
2022/02/27 08:26:09;;;;;;;5.07;2.33;;;;;;;;;;5013661;28;20195;-88
2022/02/27 08:28:35;;;;;;;6.10;2.90;;;;;;;;;;5042688;28;20198;-87
2022/02/27 08:31:01;;;;;;;12.45;3.17;;;;;;;;;;5012783;28;20198;-84
2022/02/27 08:33:27;;;;;;;5.85;2.60;;;;;;;;;;5023286;28;20392;-82
2022/02/27 08:35:57;;;;;;;4.15;2.58;;;;;;;;;;5032255;28;20206;-85
2022/02/27 08:38:23;;;;;;;4.85;2.42;;;;;;;;;;5024577;28;20188;-84
2022/02/27 08:40:51;;;;;;;4.70;1.77;;;;;;;;;;5030404;28;20222;-85
2022/02/27 08:43:17;;;;;;;4.05;2.20;;;;;;;;;;5040067;28;20656;-81
2022/02/27 08:45:43;;;;;;;7.05;2.45;;;;;;;;;;5013190;28;20197;-81
2022/02/27 08:48:09;;;;;;;7.00;2.20;;;;;;;;;;5033928;28;20171;-85
2022/02/27 08:50:35;;;;;;;6.28;2.17;;;;;;;;;;5046723;28;20723;-81
2022/02/27 08:53:01;;;;;;;2.42;2.08;;;;;;;;;;5024301;28;20190;-82
2022/02/27 08:55:27;;;;;;;6.03;2.40;;;;;;;;;;5029170;28;20197;-80
2022/02/27 08:57:53;;;;;;;1.83;1.70;;;;;;;;;;5018147;28;20202;-82
2022/02/27 09:00:19;;;;;;;3.90;2.80;;;;;;;;;;5037128;28;20305;-80
2022/02/27 09:02:47;;;;;;;3.50;2.00;;;;;;;;;;5060942;28;20178;-84
2022/02/27 09:05:13;;;;;;;3.95;1.95;;;;;;;;;;5024313;28;20217;-83
2022/02/27 09:07:39;;;;;;;6.13;3.10;;;;;;;;;;5038290;28;20186;-81
2022/02/27 09:10:08;;;;;;;4.25;3.30;;;;;;;;;;5036486;28;20189;-85
2022/02/27 09:12:34;;;;;;;2.40;2.00;;;;;;;;;;5028136;28;20722;-86
2022/02/27 09:15:00;;;;;;;4.82;2.88;;;;;;;;;;5053285;28;20659;-86
2022/02/27 09:17:26;;;;;;;4.40;2.22;;;;;;;;;;5035687;28;20241;-90
2022/02/27 09:19:52;;;;;;;4.25;2.30;;;;;;;;;;5022387;28;20218;-88
2022/02/27 09:22:18;;;;;;;4.90;2.08;;;;;;;;;;5011517;28;20199;-84
2022/02/27 09:24:44;;;;;;;5.03;2.95;;;;;;;;;;5040202;28;20196;-87
2022/02/27 09:27:10;;;;;;;5.43;2.30;;;;;;;;;;5021359;28;20182;-87
2022/02/27 09:29:36;;;;;;;4.03;2.38;;;;;;;;;;5045836;28;20197;-83
2022/02/27 09:32:02;;;;;;;4.40;2.10;;;;;;;;;;5050606;28;20205;-88
2022/02/27 09:34:28;;;;;;;3.20;2.30;;;;;;;;;;5014383;28;20190;-86
2022/02/27 09:36:54;;;;;;;4.82;2.17;;;;;;;;;;5024802;28;20694;-88
2022/02/27 09:39:21;;;;;;;8.98;2.53;;;;;;;;;;5037517;28;20226;-90
2022/02/27 09:41:47;;;;;;;3.63;2.25;;;;;;;;;;5027003;28;20183;-87
2022/02/27 09:44:13;;;;;;;9.25;2.58;;;;;;;;;;5025200;28;20255;-86
2022/02/27 09:46:39;;;;;;;3.63;2.60;;;;;;;;;;5013504;28;20193;-86
2022/02/27 09:49:06;;;;;;;5.32;3.65;;;;;;;;;;5011852;28;20179;-87
2022/02/27 09:51:32;;;;;;;5.88;2.50;;;;;;;;;;5023793;28;20190;-86
2022/02/27 09:53:58;;;;;;;14.07;3.78;;;;;;;;;;5039667;28;20214;-84
2022/02/27 09:56:24;;;;;;;5.72;2.75;;;;;;;;;;5027631;28;20206;-85
2022/02/27 09:58:50;;;;;;;5.93;2.70;;;;;;;;;;5028421;28;20183;-82
2022/02/27 10:01:18;;;;;;;5.80;2.65;;;;;;;;;;5023872;28;20194;-87
2022/02/27 10:03:44;;;;;;;3.83;2.72;;;;;;;;;;5056434;28;20179;-85
2022/02/27 10:06:17;;;;;;;4.07;2.63;;;;;;;;;;5025681;28;20176;-81
2022/02/27 10:08:56;;;;;;;5.97;2.28;;;;;;;;;;5023868;28;20175;-88
2022/02/27 10:11:22;;;;;;;8.63;2.50;;;;;;;;;;5022890;28;20274;-86
2022/02/27 10:13:55;;;;;;;4.82;2.20;;;;;;;;;;5013276;28;20183;-84
2022/02/27 10:16:22;;;;;;;2.83;1.90;;;;;;;;;;5027831;28;20198;-85
2022/02/27 10:18:50;;;;;;;5.30;3.00;;;;;;;;;;5023986;28;20186;-87
2022/02/27 10:21:22;;;;;;;3.95;2.38;;;;;;;;;;5018760;28;20189;-88
2022/02/27 10:24:18;;;;;;;5.18;2.75;;;;;;;;;;5013178;28;20246;-86
2022/02/27 10:26:45;;;;;;;4.28;2.28;;;;;;;;;;5042921;28;20236;-82
2022/02/27 10:29:17;;;;;;;2.50;2.25;;;;;;;;;;5032022;28;20171;-83
2022/02/27 10:31:47;;;;;;;3.05;2.25;;;;;;;;;;5028035;28;20214;-83
2022/02/27 10:34:21;;;;;;;3.60;2.60;;;;;;;;;;5023740;28;20207;-83
2022/02/27 10:36:58;;;;;;;4.15;2.63;;;;;;;;;;5040142;28;20233;-82
2022/02/27 10:39:27;;;;;;;3.25;2.10;;;;;;;;;;5007182;28;20225;-83
2022/02/27 10:41:53;;;;;;;5.55;2.83;;;;;;;;;;5011806;28;20179;-86
2022/02/27 10:44:25;;;;;;;3.45;2.28;;;;;;;;;;5023478;28;20183;-87
2022/02/27 10:47:11;;;;;;;7.28;3.10;;;;;;;;;;5026713;28;20254;-87
2022/02/27 10:49:37;;;;;;;2.47;2.15;;;;;;;;;;5023125;28;20262;-87
2022/02/27 10:52:14;;;;;;;3.10;2.30;;;;;;;;;;5023332;28;20190;-86
2022/02/27 10:54:41;;;;;;;3.70;2.90;;;;;;;;;;5006597;28;20213;-83
2022/02/27 10:57:10;;;;;;;2.55;2.35;;;;;;;;;;5036833;28;20241;-83
2022/02/27 10:59:38;;;;;;;7.38;3.08;;;;;;;;;;5022032;28;20190;-85
2022/02/27 11:02:04;;;;;;;3.45;2.17;;;;;;;;;;5032260;28;20601;-84
2022/02/27 11:04:31;;;;;;;2.40;2.05;;;;;;;;;;5023603;28;20228;-85
2022/02/27 11:06:57;;;;;;;3.13;2.83;;;;;;;;;;5023269;28;20221;-87
2022/02/27 11:09:23;;;;;;;4.22;2.67;;;;;;;;;;5045613;28;20182;-86
2022/02/27 11:11:49;;;;;;;3.03;2.10;;;;;;;;;;5052748;28;20174;-86
2022/02/27 11:14:16;;;;;;;4.72;2.47;;;;;;;;;;5018411;28;20186;-85
2022/02/27 11:16:42;;;;;;;2.88;2.40;;;;;;;;;;5016420;28;20203;-87
2022/02/27 11:19:08;;;;;;;2.58;2.05;;;;;;;;;;5030086;28;20206;-84
2022/02/27 11:21:34;;;;;;;2.67;2.38;;;;;;;;;;5028383;28;20198;-86
2022/02/27 11:24:02;;;;;;;3.00;2.45;;;;;;;;;;5010066;28;20329;-86
2022/02/27 11:26:28;;;;;;;3.83;2.70;;;;;;;;;;5012568;28;20195;-86
2022/02/27 11:28:54;;;;;;;4.03;2.92;;;;;;;;;;5048971;28;20183;-94
2022/02/27 11:31:21;;;;;;;3.97;3.20;;;;;;;;;;5018498;28;20253;-88
2022/02/27 11:33:47;;;;;;;3.88;2.45;;;;;;;;;;5013130;28;20185;-86
2022/02/27 11:36:23;;;;;;;3.78;2.90;;;;;;;;;;5032017;28;20244;-93
2022/02/27 11:39:03;;;;;;;4.90;2.80;;;;;;;;;;5045399;28;20204;-90
2022/02/27 11:41:45;;;;;;;9.23;2.75;;;;;;;;;;5023967;28;20244;-91
2022/02/27 11:44:17;;;;;;;3.42;2.88;;;;;;;;;;5022575;28;20186;-91
2022/02/27 11:46:44;;;;;;;7.63;3.92;;;;;;;;;;5023093;28;20198;-89
2022/02/27 11:49:18;;;;;;;6.63;2.85;;;;;;;;;;5049426;28;20258;-93
2022/02/27 11:51:46;;;;;;;5.90;2.78;;;;;;;;;;5052045;28;20182;-85
2022/02/27 11:54:18;;;;;;;3.00;2.70;;;;;;;;;;5042994;28;20195;-86
2022/02/27 11:57:03;;;;;;;4.47;3.05;;;;;;;;;;5050515;28;20274;-88
2022/02/27 11:59:48;;;;;;;6.45;3.03;;;;;;;;;;5018641;28;20189;-87
2022/02/27 12:02:27;;;;;;;3.22;2.90;;;;;;;;;;5040851;28;20190;-91
2022/02/27 12:04:55;;;;;;;5.63;2.45;;;;;;;;;;5044784;28;20182;-87
2022/02/27 12:07:21;;;;;;;6.68;2.88;;;;;;;;;;5053180;28;20190;-84
2022/02/27 12:09:53;;;;;;;3.95;2.65;;;;;;;;;;5014568;28;20198;-88
2022/02/27 12:12:34;;;;;;;5.88;3.35;;;;;;;;;;5029060;28;20185;-89
2022/02/27 12:15:20;;;;;;;2.97;2.70;;;;;;;;;;5053387;28;20187;-89
2022/02/27 12:17:51;;;;;;;3.33;2.50;;;;;;;;;;5044314;28;20259;-87
2022/02/27 12:20:36;;;;;;;4.07;2.60;;;;;;;;;;5047283;28;20191;-88
2022/02/27 12:23:02;;;;;;;5.90;2.88;;;;;;;;;;5024658;28;20458;-90
2022/02/27 12:25:38;;;;;;;5.60;2.97;;;;;;;;;;5036019;28;20187;-89
2022/02/27 12:28:05;;;;;;;4.10;3.40;;;;;;;;;;5037447;28;20429;-91
2022/02/27 12:30:31;;;;;;;3.40;2.20;;;;;;;;;;5025528;28;20210;-87
2022/02/27 12:33:06;;;;;;;4.33;3.63;;;;;;;;;;5024618;28;20210;-90
2022/02/27 12:35:36;;;;;;;6.00;3.53;;;;;;;;;;5022670;28;20921;-80
2022/02/27 12:38:13;;;;;;;5.15;2.83;;;;;;;;;;5047092;28;20314;-88
2022/02/27 12:40:39;;;;;;;5.15;2.50;;;;;;;;;;5025491;28;20226;-91
2022/02/27 12:43:06;;;;;;;4.57;3.10;;;;;;;;;;5028305;28;20175;-85
2022/02/27 12:45:36;;;;;;;3.60;2.50;;;;;;;;;;5025564;28;20175;-90
2022/02/27 12:48:13;;;;;;;3.63;3.05;;;;;;;;;;5041210;28;20274;-90
2022/02/27 12:50:49;;;;;;;3.63;2.97;;;;;;;;;;5037719;28;20186;-91
2022/02/27 12:53:16;;;;;;;6.03;2.97;;;;;;;;;;5027757;28;20186;-88
2022/02/27 12:55:42;;;;;;;4.15;3.15;;;;;;;;;;5042617;28;20194;-90
2022/02/27 12:58:09;;;;;;;6.18;3.15;;;;;;;;;;5037916;28;20237;-90
2022/02/27 13:00:36;;;;;;;3.28;2.70;;;;;;;;;;5041534;28;20187;-87
2022/02/27 13:03:12;;;;;;;3.88;3.10;;;;;;;;;;5027970;28;20171;-90
2022/02/27 13:05:39;;;;;;;5.45;3.55;;;;;;;;;;5028899;28;20186;-81
2022/02/27 13:08:06;;;;;;;6.70;3.83;;;;;;;;;;5030645;28;20266;-89
2022/02/27 13:10:34;;;;;;;4.43;3.10;;;;;;;;;;5034678;28;20237;-89
2022/02/27 13:13:00;;;;;;;4.07;3.10;;;;;;;;;;5015653;28;20186;-85
2022/02/27 13:15:26;;;;;;;3.75;3.38;;;;;;;;;;5019353;28;20177;-89
2022/02/27 13:17:52;;;;;;;4.55;3.22;;;;;;;;;;5018363;28;20234;-87
2022/02/27 13:20:19;;;;;;;4.78;3.75;;;;;;;;;;5045474;28;20212;-90
2022/02/27 13:22:50;;;;;;;7.40;3.83;;;;;;;;;;5032490;28;20179;-91
2022/02/27 13:25:16;;;;;;;5.15;3.13;;;;;;;;;;5041328;28;20202;-87
2022/02/27 13:27:47;;;;;;;4.10;3.60;;;;;;;;;;5025827;28;20197;-90
2022/02/27 13:30:13;;;;;;;4.40;4.00;;;;;;;;;;5023614;28;20174;-83
2022/02/27 13:32:41;;;;;;;5.43;3.40;;;;;;;;;;5013754;28;20183;-83
2022/02/27 13:35:17;;;;;;;5.30;3.42;;;;;;;;;;5029046;28;20443;-82
2022/02/27 13:37:52;;;;;;;4.00;3.60;;;;;;;;;;5013917;28;20206;-87
2022/02/27 13:40:19;;;;;;;6.47;4.47;;;;;;;;;;5039336;28;20225;-88
2022/02/27 13:42:48;;;;;;;3.53;3.22;;;;;;;;;;5041119;28;20232;-86
2022/02/27 13:45:54;;;;;;;4.88;3.60;;;;;;;;;;5037827;28;20171;-89
2022/02/27 13:48:30;;;;;;;5.50;3.38;;;;;;;;;;4984821;28;20187;-91
2022/02/27 13:50:56;;;;;;;4.18;3.20;;;;;;;;;;4987891;28;20212;-90
2022/02/27 13:53:25;;;;;;;4.97;3.47;;;;;;;;;;4991929;28;20228;-82
2022/02/27 13:55:52;;;;;;;4.03;3.72;;;;;;;;;;4976755;28;20196;-90
2022/02/27 13:58:19;;;;;;;5.18;3.30;;;;;;;;;;4990660;28;20196;-90
2022/02/27 14:00:52;;;;;;;5.82;3.63;;;;;;;;;;4996903;28;20194;-90
2022/02/27 14:03:18;;;;;;;9.93;4.03;;;;;;;;;;4994102;28;20272;-85
2022/02/27 14:06:03;;;;;;;3.63;2.90;;;;;;;;;;4993884;28;20423;-88
2022/02/27 14:08:32;;;;;;;5.63;3.63;;;;;;;;;;4998884;28;20431;-87
2022/02/27 14:11:11;;;;;;;4.60;4.20;;;;;;;;;;4995453;28;20422;-87
2022/02/27 14:13:44;;;;;;;4.10;3.70;;;;;;;;;;4998502;28;20412;-89
2022/02/27 14:16:11;;;;;;;4.00;3.60;;;;;;;;;;4995747;28;20454;-87
2022/02/27 14:18:38;;;;;;;4.53;3.60;;;;;;;;;;4996697;28;20442;-92
2022/02/27 14:21:25;;;;;;;4.80;3.43;;;;;;;;;;5056314;28;20395;-87
2022/02/27 14:24:05;;;;;;;4.20;3.80;;;;;;;;;;5038591;28;20441;-87
2022/02/27 14:26:32;;;;;;;3.83;3.53;;;;;;;;;;5011497;28;20483;-86
2022/02/27 14:28:59;;;;;;;3.80;3.47;;;;;;;;;;5022500;28;20437;-88
2022/02/27 14:31:29;;;;;;;4.10;3.70;;;;;;;;;;5029450;28;20457;-86
2022/02/27 14:33:57;;;;;;;4.10;3.70;;;;;;;;;;5008061;28;20437;-87
2022/02/27 14:36:23;;;;;;;4.43;3.60;;;;;;;;;;5037077;28;20484;-87
2022/02/27 14:38:52;;;;;;;4.87;4.30;;;;;;;;;;5011650;28;20451;-83
2022/02/27 14:41:21;;;;;;;3.63;3.33;;;;;;;;;;5012366;28;20457;-89
2022/02/27 14:43:46;;;;;;;4.27;3.80;;;;;;;;;;5026852;28;20453;-91
2022/02/27 14:46:12;;;;;;;4.43;3.50;;;;;;;;;;5025179;28;20576;-82